sensor_id;sensor_type;location;lat;lon;timestamp;temperature;humidity
59309;DHT22;48433;53.016;-2.260;2022-07-30T00:00:52;17.40;99.90
59309;DHT22;48433;53.016;-2.260;2022-07-30T00:03:20;17.30;99.90
59309;DHT22;48433;53.016;-2.260;2022-07-30T00:05:48;17.40;99.90
59309;DHT22;48433;53.016;-2.260;2022-07-30T00:08:16;17.40;99.90
59309;DHT22;48433;53.016;-2.260;2022-07-30T00:10:43;17.50;99.90
59309;DHT22;48433;53.016;-2.260;2022-07-30T00:13:12;17.40;99.90
59309;DHT22;48433;53.016;-2.260;2022-07-30T00:15:40;17.50;99.90
59309;DHT22;48433;53.016;-2.260;2022-07-30T00:18:08;17.50;99.90
59309;DHT22;48433;53.016;-2.260;2022-07-30T00:20:38;17.50;99.90
59309;DHT22;48433;53.016;-2.260;2022-07-30T00:23:10;17.50;99.90
59309;DHT22;48433;53.016;-2.260;2022-07-30T00:25:38;17.50;99.90
59309;DHT22;48433;53.016;-2.260;2022-07-30T00:28:06;17.50;99.90
59309;DHT22;48433;53.016;-2.260;2022-07-30T00:30:33;17.60;99.90
59309;DHT22;48433;53.016;-2.260;2022-07-30T00:33:01;17.60;99.90
59309;DHT22;48433;53.016;-2.260;2022-07-30T00:35:29;17.60;99.90
59309;DHT22;48433;53.016;-2.260;2022-07-30T00:37:56;17.60;99.90
59309;DHT22;48433;53.016;-2.260;2022-07-30T00:40:24;17.60;99.90
59309;DHT22;48433;53.016;-2.260;2022-07-30T00:42:52;17.60;99.90
59309;DHT22;48433;53.016;-2.260;2022-07-30T00:45:19;17.60;99.90
59309;DHT22;48433;53.016;-2.260;2022-07-30T00:47:47;17.60;99.90
59309;DHT22;48433;53.016;-2.260;2022-07-30T00:50:15;17.60;99.90
59309;DHT22;48433;53.016;-2.260;2022-07-30T00:52:43;17.60;99.90
59309;DHT22;48433;53.016;-2.260;2022-07-30T00:55:12;17.60;99.90
59309;DHT22;48433;53.016;-2.260;2022-07-30T00:57:41;17.60;99.90
59309;DHT22;48433;53.016;-2.260;2022-07-30T01:00:12;17.50;99.90
59309;DHT22;48433;53.016;-2.260;2022-07-30T01:02:41;17.60;99.90
59309;DHT22;48433;53.016;-2.260;2022-07-30T01:05:09;17.60;99.90
59309;DHT22;48433;53.016;-2.260;2022-07-30T01:07:36;17.50;99.90
59309;DHT22;48433;53.016;-2.260;2022-07-30T01:10:06;17.50;99.90
59309;DHT22;48433;53.016;-2.260;2022-07-30T01:12:35;17.50;99.90
59309;DHT22;48433;53.016;-2.260;2022-07-30T01:15:06;17.50;99.90
59309;DHT22;48433;53.016;-2.260;2022-07-30T01:17:35;17.50;99.90
59309;DHT22;48433;53.016;-2.260;2022-07-30T01:20:10;17.40;99.90
59309;DHT22;48433;53.016;-2.260;2022-07-30T01:28:25;17.30;99.90
59309;DHT22;48433;53.016;-2.260;2022-07-30T01:30:53;17.20;99.90
59309;DHT22;48433;53.016;-2.260;2022-07-30T01:33:24;17.20;99.90
59309;DHT22;48433;53.016;-2.260;2022-07-30T01:35:53;17.20;99.90
59309;DHT22;48433;53.016;-2.260;2022-07-30T01:38:23;17.20;99.90
59309;DHT22;48433;53.016;-2.260;2022-07-30T01:40:53;17.20;99.90
59309;DHT22;48433;53.016;-2.260;2022-07-30T01:43:23;17.20;99.90
59309;DHT22;48433;53.016;-2.260;2022-07-30T01:45:54;17.20;99.90
59309;DHT22;48433;53.016;-2.260;2022-07-30T01:48:24;17.20;99.90
59309;DHT22;48433;53.016;-2.260;2022-07-30T01:50:56;17.20;99.90
59309;DHT22;48433;53.016;-2.260;2022-07-30T01:53:26;17.20;99.90
59309;DHT22;48433;53.016;-2.260;2022-07-30T01:55:56;17.20;99.90
59309;DHT22;48433;53.016;-2.260;2022-07-30T01:58:28;17.20;99.90
59309;DHT22;48433;53.016;-2.260;2022-07-30T02:01:05;17.20;99.90
59309;DHT22;48433;53.016;-2.260;2022-07-30T02:03:34;17.20;99.90
59309;DHT22;48433;53.016;-2.260;2022-07-30T02:06:22;17.20;99.90
59309;DHT22;48433;53.016;-2.260;2022-07-30T02:09:00;17.20;99.90
59309;DHT22;48433;53.016;-2.260;2022-07-30T02:11:44;17.20;99.90
59309;DHT22;48433;53.016;-2.260;2022-07-30T02:14:48;17.20;99.90
59309;DHT22;48433;53.016;-2.260;2022-07-30T02:17:31;17.20;99.90
59309;DHT22;48433;53.016;-2.260;2022-07-30T02:20:11;17.20;99.90
59309;DHT22;48433;53.016;-2.260;2022-07-30T02:22:44;17.10;99.90
59309;DHT22;48433;53.016;-2.260;2022-07-30T02:25:17;17.10;99.90
59309;DHT22;48433;53.016;-2.260;2022-07-30T02:27:53;17.10;99.90
59309;DHT22;48433;53.016;-2.260;2022-07-30T02:30:25;17.10;99.90
59309;DHT22;48433;53.016;-2.260;2022-07-30T02:32:58;17.10;99.90
59309;DHT22;48433;53.016;-2.260;2022-07-30T02:35:28;17.10;99.90
59309;DHT22;48433;53.016;-2.260;2022-07-30T02:38:00;17.10;99.90
59309;DHT22;48433;53.016;-2.260;2022-07-30T02:40:30;17.10;99.90
59309;DHT22;48433;53.016;-2.260;2022-07-30T02:43:00;17.10;99.90
59309;DHT22;48433;53.016;-2.260;2022-07-30T02:45:29;17.10;99.90
59309;DHT22;48433;53.016;-2.260;2022-07-30T02:48:01;17.10;99.90
59309;DHT22;48433;53.016;-2.260;2022-07-30T02:50:29;17.10;99.90
59309;DHT22;48433;53.016;-2.260;2022-07-30T02:53:00;17.10;99.90
59309;DHT22;48433;53.016;-2.260;2022-07-30T02:55:31;17.10;99.90
59309;DHT22;48433;53.016;-2.260;2022-07-30T02:58:01;17.00;99.90
59309;DHT22;48433;53.016;-2.260;2022-07-30T03:00:31;17.10;99.90
59309;DHT22;48433;53.016;-2.260;2022-07-30T03:03:02;17.10;99.90
59309;DHT22;48433;53.016;-2.260;2022-07-30T03:05:32;17.10;99.90
59309;DHT22;48433;53.016;-2.260;2022-07-30T03:08:01;17.10;99.90
59309;DHT22;48433;53.016;-2.260;2022-07-30T03:10:31;17.10;99.90
59309;DHT22;48433;53.016;-2.260;2022-07-30T03:13:00;17.00;99.90
59309;DHT22;48433;53.016;-2.260;2022-07-30T03:15:29;17.10;99.90
59309;DHT22;48433;53.016;-2.260;2022-07-30T03:18:06;17.10;99.90
59309;DHT22;48433;53.016;-2.260;2022-07-30T03:20:39;17.10;99.90
59309;DHT22;48433;53.016;-2.260;2022-07-30T03:23:08;17.10;99.90
59309;DHT22;48433;53.016;-2.260;2022-07-30T03:25:38;17.10;99.90
59309;DHT22;48433;53.016;-2.260;2022-07-30T03:28:09;17.10;99.90
59309;DHT22;48433;53.016;-2.260;2022-07-30T03:30:37;17.10;99.90
59309;DHT22;48433;53.016;-2.260;2022-07-30T03:33:05;17.10;99.90
59309;DHT22;48433;53.016;-2.260;2022-07-30T03:35:33;17.10;99.90
59309;DHT22;48433;53.016;-2.260;2022-07-30T03:38:02;17.10;99.90
59309;DHT22;48433;53.016;-2.260;2022-07-30T03:40:30;17.10;99.90
59309;DHT22;48433;53.016;-2.260;2022-07-30T03:42:58;17.10;99.90
59309;DHT22;48433;53.016;-2.260;2022-07-30T03:45:27;17.10;99.90
59309;DHT22;48433;53.016;-2.260;2022-07-30T03:48:03;17.10;99.90
59309;DHT22;48433;53.016;-2.260;2022-07-30T03:50:34;17.00;99.90
59309;DHT22;48433;53.016;-2.260;2022-07-30T03:53:04;17.00;99.90
59309;DHT22;48433;53.016;-2.260;2022-07-30T03:55:36;17.00;99.90
59309;DHT22;48433;53.016;-2.260;2022-07-30T03:58:23;16.90;99.90
59309;DHT22;48433;53.016;-2.260;2022-07-30T04:00:51;16.90;99.90
59309;DHT22;48433;53.016;-2.260;2022-07-30T04:03:26;16.90;99.90
59309;DHT22;48433;53.016;-2.260;2022-07-30T04:05:58;16.90;99.90
59309;DHT22;48433;53.016;-2.260;2022-07-30T04:08:28;16.80;99.90
59309;DHT22;48433;53.016;-2.260;2022-07-30T04:10:56;16.80;99.90
59309;DHT22;48433;53.016;-2.260;2022-07-30T04:13:42;16.80;99.90
59309;DHT22;48433;53.016;-2.260;2022-07-30T04:16:14;16.80;99.90
59309;DHT22;48433;53.016;-2.260;2022-07-30T04:19:06;16.80;99.90
59309;DHT22;48433;53.016;-2.260;2022-07-30T04:21:36;16.80;99.90
59309;DHT22;48433;53.016;-2.260;2022-07-30T04:24:05;16.80;99.90
59309;DHT22;48433;53.016;-2.260;2022-07-30T04:26:35;16.80;99.90
59309;DHT22;48433;53.016;-2.260;2022-07-30T04:29:06;16.80;99.90
59309;DHT22;48433;53.016;-2.260;2022-07-30T04:31:35;16.80;99.90
59309;DHT22;48433;53.016;-2.260;2022-07-30T04:34:27;16.80;99.90
59309;DHT22;48433;53.016;-2.260;2022-07-30T04:36:56;16.90;99.90
59309;DHT22;48433;53.016;-2.260;2022-07-30T04:39:24;16.90;99.90
59309;DHT22;48433;53.016;-2.260;2022-07-30T04:41:52;16.90;99.90
59309;DHT22;48433;53.016;-2.260;2022-07-30T04:44:34;16.90;99.90
59309;DHT22;48433;53.016;-2.260;2022-07-30T04:47:25;16.90;99.90
59309;DHT22;48433;53.016;-2.260;2022-07-30T04:50:20;16.90;99.90
59309;DHT22;48433;53.016;-2.260;2022-07-30T04:52:50;16.90;99.90
59309;DHT22;48433;53.016;-2.260;2022-07-30T04:55:25;16.90;99.90
59309;DHT22;48433;53.016;-2.260;2022-07-30T04:57:54;16.90;99.90
59309;DHT22;48433;53.016;-2.260;2022-07-30T05:00:22;16.90;99.90
59309;DHT22;48433;53.016;-2.260;2022-07-30T05:02:51;16.90;99.90
59309;DHT22;48433;53.016;-2.260;2022-07-30T05:05:21;16.90;99.90
59309;DHT22;48433;53.016;-2.260;2022-07-30T05:07:53;16.90;99.90
59309;DHT22;48433;53.016;-2.260;2022-07-30T05:10:21;16.90;99.90
59309;DHT22;48433;53.016;-2.260;2022-07-30T05:12:49;16.90;99.90
59309;DHT22;48433;53.016;-2.260;2022-07-30T05:15:18;17.00;99.90
59309;DHT22;48433;53.016;-2.260;2022-07-30T05:17:47;17.00;99.90
59309;DHT22;48433;53.016;-2.260;2022-07-30T05:20:15;17.00;99.90
59309;DHT22;48433;53.016;-2.260;2022-07-30T05:23:12;17.00;99.90
59309;DHT22;48433;53.016;-2.260;2022-07-30T05:25:44;17.00;99.90
59309;DHT22;48433;53.016;-2.260;2022-07-30T05:28:17;17.00;99.90
59309;DHT22;48433;53.016;-2.260;2022-07-30T05:30:47;17.00;99.90
59309;DHT22;48433;53.016;-2.260;2022-07-30T05:33:18;17.00;99.90
59309;DHT22;48433;53.016;-2.260;2022-07-30T05:35:48;17.10;99.90
59309;DHT22;48433;53.016;-2.260;2022-07-30T05:38:17;17.10;99.90
59309;DHT22;48433;53.016;-2.260;2022-07-30T05:41:10;17.10;99.90
59309;DHT22;48433;53.016;-2.260;2022-07-30T05:44:08;17.10;99.90
59309;DHT22;48433;53.016;-2.260;2022-07-30T05:46:37;17.10;99.90
59309;DHT22;48433;53.016;-2.260;2022-07-30T05:49:04;17.20;99.90
59309;DHT22;48433;53.016;-2.260;2022-07-30T05:51:33;17.20;99.90
59309;DHT22;48433;53.016;-2.260;2022-07-30T05:54:01;17.20;99.90
59309;DHT22;48433;53.016;-2.260;2022-07-30T05:56:57;17.20;99.90
59309;DHT22;48433;53.016;-2.260;2022-07-30T05:59:31;17.20;99.90
59309;DHT22;48433;53.016;-2.260;2022-07-30T06:02:19;17.20;99.90
59309;DHT22;48433;53.016;-2.260;2022-07-30T06:05:09;17.20;99.90
59309;DHT22;48433;53.016;-2.260;2022-07-30T06:07:37;17.30;99.90
59309;DHT22;48433;53.016;-2.260;2022-07-30T06:10:07;17.30;99.90
59309;DHT22;48433;53.016;-2.260;2022-07-30T06:12:36;17.30;99.90
59309;DHT22;48433;53.016;-2.260;2022-07-30T06:15:04;17.40;99.90
59309;DHT22;48433;53.016;-2.260;2022-07-30T06:17:46;17.40;99.90
59309;DHT22;48433;53.016;-2.260;2022-07-30T06:20:40;17.50;99.90
59309;DHT22;48433;53.016;-2.260;2022-07-30T06:23:11;17.50;99.90
59309;DHT22;48433;53.016;-2.260;2022-07-30T06:26:14;17.60;99.90
59309;DHT22;48433;53.016;-2.260;2022-07-30T06:28:43;17.70;99.90
59309;DHT22;48433;53.016;-2.260;2022-07-30T06:31:17;17.80;99.90
59309;DHT22;48433;53.016;-2.260;2022-07-30T06:33:45;17.80;99.90
59309;DHT22;48433;53.016;-2.260;2022-07-30T06:36:14;17.90;99.90
59309;DHT22;48433;53.016;-2.260;2022-07-30T06:38:52;18.00;99.90
59309;DHT22;48433;53.016;-2.260;2022-07-30T06:41:31;18.10;99.90
59309;DHT22;48433;53.016;-2.260;2022-07-30T06:43:59;18.10;99.90
59309;DHT22;48433;53.016;-2.260;2022-07-30T06:47:04;18.10;99.90
59309;DHT22;48433;53.016;-2.260;2022-07-30T06:49:37;18.10;99.90
59309;DHT22;48433;53.016;-2.260;2022-07-30T06:52:07;18.10;99.90
59309;DHT22;48433;53.016;-2.260;2022-07-30T06:54:36;18.10;99.90
59309;DHT22;48433;53.016;-2.260;2022-07-30T06:57:14;18.00;99.90
59309;DHT22;48433;53.016;-2.260;2022-07-30T06:59:42;18.10;99.90
59309;DHT22;48433;53.016;-2.260;2022-07-30T07:02:32;18.10;99.90
59309;DHT22;48433;53.016;-2.260;2022-07-30T07:05:23;18.20;99.90
59309;DHT22;48433;53.016;-2.260;2022-07-30T07:07:51;18.20;99.90
59309;DHT22;48433;53.016;-2.260;2022-07-30T07:10:30;18.30;99.90
59309;DHT22;48433;53.016;-2.260;2022-07-30T07:13:14;18.40;99.90
59309;DHT22;48433;53.016;-2.260;2022-07-30T07:15:43;18.50;99.90
59309;DHT22;48433;53.016;-2.260;2022-07-30T07:18:16;18.60;99.90
59309;DHT22;48433;53.016;-2.260;2022-07-30T07:20:51;18.60;99.90
59309;DHT22;48433;53.016;-2.260;2022-07-30T07:23:18;18.60;99.90
59309;DHT22;48433;53.016;-2.260;2022-07-30T07:25:51;18.70;99.90
59309;DHT22;48433;53.016;-2.260;2022-07-30T07:28:19;18.70;99.90
59309;DHT22;48433;53.016;-2.260;2022-07-30T07:30:48;18.80;99.90
59309;DHT22;48433;53.016;-2.260;2022-07-30T07:33:17;18.90;99.90
59309;DHT22;48433;53.016;-2.260;2022-07-30T07:35:46;18.80;99.90
59309;DHT22;48433;53.016;-2.260;2022-07-30T07:38:25;18.90;99.90
59309;DHT22;48433;53.016;-2.260;2022-07-30T07:40:54;18.90;99.90
59309;DHT22;48433;53.016;-2.260;2022-07-30T07:43:22;18.90;99.90
59309;DHT22;48433;53.016;-2.260;2022-07-30T07:45:54;18.90;99.90
59309;DHT22;48433;53.016;-2.260;2022-07-30T07:48:22;19.00;99.90
59309;DHT22;48433;53.016;-2.260;2022-07-30T07:51:16;19.10;99.90
59309;DHT22;48433;53.016;-2.260;2022-07-30T07:54:06;19.30;99.90
59309;DHT22;48433;53.016;-2.260;2022-07-30T07:56:49;19.40;99.90
59309;DHT22;48433;53.016;-2.260;2022-07-30T07:59:37;19.60;99.90
59309;DHT22;48433;53.016;-2.260;2022-07-30T08:02:15;19.80;99.90
59309;DHT22;48433;53.016;-2.260;2022-07-30T08:04:58;19.80;99.90
59309;DHT22;48433;53.016;-2.260;2022-07-30T08:07:47;19.90;99.90
59309;DHT22;48433;53.016;-2.260;2022-07-30T08:10:34;19.90;99.90
59309;DHT22;48433;53.016;-2.260;2022-07-30T08:13:21;20.00;99.90
59309;DHT22;48433;53.016;-2.260;2022-07-30T08:16:28;20.10;99.90
59309;DHT22;48433;53.016;-2.260;2022-07-30T08:19:29;20.00;99.90
59309;DHT22;48433;53.016;-2.260;2022-07-30T08:22:11;20.10;99.90
59309;DHT22;48433;53.016;-2.260;2022-07-30T08:24:39;20.20;99.90
59309;DHT22;48433;53.016;-2.260;2022-07-30T08:27:07;20.30;99.90
59309;DHT22;48433;53.016;-2.260;2022-07-30T08:29:35;20.30;99.90
59309;DHT22;48433;53.016;-2.260;2022-07-30T08:32:03;20.40;99.90
59309;DHT22;48433;53.016;-2.260;2022-07-30T08:34:34;20.30;99.90
59309;DHT22;48433;53.016;-2.260;2022-07-30T08:37:03;20.20;99.90
59309;DHT22;48433;53.016;-2.260;2022-07-30T08:39:30;20.30;99.90
59309;DHT22;48433;53.016;-2.260;2022-07-30T08:41:59;20.30;99.90
59309;DHT22;48433;53.016;-2.260;2022-07-30T08:44:30;20.30;99.90
59309;DHT22;48433;53.016;-2.260;2022-07-30T08:47:00;20.40;99.90
59309;DHT22;48433;53.016;-2.260;2022-07-30T08:49:50;20.30;99.90
59309;DHT22;48433;53.016;-2.260;2022-07-30T08:52:23;20.40;99.90
59309;DHT22;48433;53.016;-2.260;2022-07-30T08:54:59;20.40;99.90
59309;DHT22;48433;53.016;-2.260;2022-07-30T08:57:28;20.40;99.90
59309;DHT22;48433;53.016;-2.260;2022-07-30T08:59:57;20.50;99.90
59309;DHT22;48433;53.016;-2.260;2022-07-30T09:02:31;20.40;99.90
59309;DHT22;48433;53.016;-2.260;2022-07-30T09:05:04;20.40;99.90
59309;DHT22;48433;53.016;-2.260;2022-07-30T09:07:38;20.40;99.90
59309;DHT22;48433;53.016;-2.260;2022-07-30T09:13:23;20.30;99.90
59309;DHT22;48433;53.016;-2.260;2022-07-30T09:15:53;20.30;99.90
59309;DHT22;48433;53.016;-2.260;2022-07-30T09:18:38;20.20;99.90
59309;DHT22;48433;53.016;-2.260;2022-07-30T09:24:01;20.40;99.90
59309;DHT22;48433;53.016;-2.260;2022-07-30T09:27:04;20.50;99.90
59309;DHT22;48433;53.016;-2.260;2022-07-30T09:30:05;20.50;99.90
59309;DHT22;48433;53.016;-2.260;2022-07-30T09:33:11;20.60;99.90
59309;DHT22;48433;53.016;-2.260;2022-07-30T09:36:39;20.70;99.90
59309;DHT22;48433;53.016;-2.260;2022-07-30T09:42:25;20.70;99.90
59309;DHT22;48433;53.016;-2.260;2022-07-30T09:45:15;20.80;99.90
59309;DHT22;48433;53.016;-2.260;2022-07-30T09:48:20;20.90;99.90
59309;DHT22;48433;53.016;-2.260;2022-07-30T09:50:55;21.00;99.90
59309;DHT22;48433;53.016;-2.260;2022-07-30T09:53:25;21.10;99.90
59309;DHT22;48433;53.016;-2.260;2022-07-30T09:55:57;21.20;99.90
59309;DHT22;48433;53.016;-2.260;2022-07-30T09:58:47;21.40;99.90
59309;DHT22;48433;53.016;-2.260;2022-07-30T10:01:17;21.40;99.90
59309;DHT22;48433;53.016;-2.260;2022-07-30T10:03:47;21.40;99.90
59309;DHT22;48433;53.016;-2.260;2022-07-30T10:06:34;21.40;99.90
59309;DHT22;48433;53.016;-2.260;2022-07-30T10:09:33;21.30;99.90
59309;DHT22;48433;53.016;-2.260;2022-07-30T10:12:06;21.40;99.90
59309;DHT22;48433;53.016;-2.260;2022-07-30T10:14:44;21.40;99.90
59309;DHT22;48433;53.016;-2.260;2022-07-30T10:17:16;21.50;99.90
59309;DHT22;48433;53.016;-2.260;2022-07-30T10:20:15;21.50;99.90
59309;DHT22;48433;53.016;-2.260;2022-07-30T10:23:06;21.60;99.90
59309;DHT22;48433;53.016;-2.260;2022-07-30T10:25:38;21.80;99.90
59309;DHT22;48433;53.016;-2.260;2022-07-30T10:28:51;22.00;99.90
59309;DHT22;48433;53.016;-2.260;2022-07-30T10:31:20;22.10;99.90
59309;DHT22;48433;53.016;-2.260;2022-07-30T10:34:09;22.00;99.90
59309;DHT22;48433;53.016;-2.260;2022-07-30T10:36:58;22.00;99.90
59309;DHT22;48433;53.016;-2.260;2022-07-30T10:40:05;21.90;99.90
59309;DHT22;48433;53.016;-2.260;2022-07-30T10:45:24;21.80;99.90
59309;DHT22;48433;53.016;-2.260;2022-07-30T10:48:45;21.80;99.90
59309;DHT22;48433;53.016;-2.260;2022-07-30T10:51:17;21.70;99.90
59309;DHT22;48433;53.016;-2.260;2022-07-30T10:54:00;21.60;99.90
59309;DHT22;48433;53.016;-2.260;2022-07-30T10:56:28;21.60;99.90
59309;DHT22;48433;53.016;-2.260;2022-07-30T10:59:09;21.40;99.90
59309;DHT22;48433;53.016;-2.260;2022-07-30T11:04:20;21.00;99.90
59309;DHT22;48433;53.016;-2.260;2022-07-30T11:09:54;20.70;99.90
59309;DHT22;48433;53.016;-2.260;2022-07-30T11:15:11;20.80;99.90
59309;DHT22;48433;53.016;-2.260;2022-07-30T11:18:06;20.90;99.90
59309;DHT22;48433;53.016;-2.260;2022-07-30T11:20:40;21.10;99.90
59309;DHT22;48433;53.016;-2.260;2022-07-30T11:25:46;21.30;99.90
59309;DHT22;48433;53.016;-2.260;2022-07-30T11:28:44;21.30;99.90
59309;DHT22;48433;53.016;-2.260;2022-07-30T11:31:34;21.40;99.90
59309;DHT22;48433;53.016;-2.260;2022-07-30T11:37:06;21.30;99.90
59309;DHT22;48433;53.016;-2.260;2022-07-30T11:42:28;21.20;99.90
59309;DHT22;48433;53.016;-2.260;2022-07-30T11:47:48;21.30;99.90
59309;DHT22;48433;53.016;-2.260;2022-07-30T11:52:58;21.40;99.90
59309;DHT22;48433;53.016;-2.260;2022-07-30T11:57:58;21.50;99.90
59309;DHT22;48433;53.016;-2.260;2022-07-30T12:00:40;21.70;99.90
59309;DHT22;48433;53.016;-2.260;2022-07-30T12:03:14;21.90;99.90
59309;DHT22;48433;53.016;-2.260;2022-07-30T12:05:42;21.90;99.90
59309;DHT22;48433;53.016;-2.260;2022-07-30T12:08:11;22.00;99.90
59309;DHT22;48433;53.016;-2.260;2022-07-30T12:11:00;22.00;99.90
59309;DHT22;48433;53.016;-2.260;2022-07-30T12:13:27;22.00;99.90
59309;DHT22;48433;53.016;-2.260;2022-07-30T12:16:14;21.80;99.90
59309;DHT22;48433;53.016;-2.260;2022-07-30T12:18:44;21.70;99.90
59309;DHT22;48433;53.016;-2.260;2022-07-30T12:21:13;21.50;99.90
59309;DHT22;48433;53.016;-2.260;2022-07-30T12:26:26;21.60;99.90
59309;DHT22;48433;53.016;-2.260;2022-07-30T12:28:57;21.80;99.90
59309;DHT22;48433;53.016;-2.260;2022-07-30T12:31:26;22.10;99.90
59309;DHT22;48433;53.016;-2.260;2022-07-30T12:33:54;22.40;99.90
59309;DHT22;48433;53.016;-2.260;2022-07-30T12:36:30;22.60;99.90
59309;DHT22;48433;53.016;-2.260;2022-07-30T12:39:00;22.80;99.90
59309;DHT22;48433;53.016;-2.260;2022-07-30T12:41:44;22.80;99.90
59309;DHT22;48433;53.016;-2.260;2022-07-30T12:47:04;22.80;99.90
59309;DHT22;48433;53.016;-2.260;2022-07-30T12:49:33;22.80;99.90
59309;DHT22;48433;53.016;-2.260;2022-07-30T12:52:30;22.80;99.90
59309;DHT22;48433;53.016;-2.260;2022-07-30T13:03:22;23.20;99.90
59309;DHT22;48433;53.016;-2.260;2022-07-30T13:05:52;23.20;99.90
59309;DHT22;48433;53.016;-2.260;2022-07-30T13:11:12;23.80;99.90
59309;DHT22;48433;53.016;-2.260;2022-07-30T13:13:40;24.70;98.90
59309;DHT22;48433;53.016;-2.260;2022-07-30T13:16:08;25.70;96.50
59309;DHT22;48433;53.016;-2.260;2022-07-30T13:18:38;26.30;94.40
59309;DHT22;48433;53.016;-2.260;2022-07-30T13:21:07;26.40;94.30
59309;DHT22;48433;53.016;-2.260;2022-07-30T13:23:39;26.20;93.60
59309;DHT22;48433;53.016;-2.260;2022-07-30T13:26:08;26.00;93.30
59309;DHT22;48433;53.016;-2.260;2022-07-30T13:28:37;25.60;93.80
59309;DHT22;48433;53.016;-2.260;2022-07-30T13:31:05;25.30;94.20
59309;DHT22;48433;53.016;-2.260;2022-07-30T13:33:34;25.00;95.00
59309;DHT22;48433;53.016;-2.260;2022-07-30T13:36:03;24.80;95.10
59309;DHT22;48433;53.016;-2.260;2022-07-30T13:38:31;24.70;95.10
59309;DHT22;48433;53.016;-2.260;2022-07-30T13:40:59;24.40;95.30
59309;DHT22;48433;53.016;-2.260;2022-07-30T13:43:30;24.10;96.00
59309;DHT22;48433;53.016;-2.260;2022-07-30T13:46:01;23.60;97.00
59309;DHT22;48433;53.016;-2.260;2022-07-30T13:48:31;23.20;98.20
59309;DHT22;48433;53.016;-2.260;2022-07-30T13:50:59;23.00;99.30
59309;DHT22;48433;53.016;-2.260;2022-07-30T13:53:27;22.80;99.90
59309;DHT22;48433;53.016;-2.260;2022-07-30T13:55:56;22.60;99.90
59309;DHT22;48433;53.016;-2.260;2022-07-30T13:58:25;22.50;99.90
59309;DHT22;48433;53.016;-2.260;2022-07-30T14:00:54;22.50;99.90
59309;DHT22;48433;53.016;-2.260;2022-07-30T14:03:22;22.50;99.90
59309;DHT22;48433;53.016;-2.260;2022-07-30T14:05:50;22.50;99.90
59309;DHT22;48433;53.016;-2.260;2022-07-30T14:08:18;22.50;99.90
59309;DHT22;48433;53.016;-2.260;2022-07-30T14:10:45;22.50;99.90
59309;DHT22;48433;53.016;-2.260;2022-07-30T14:13:13;22.60;99.90
59309;DHT22;48433;53.016;-2.260;2022-07-30T14:15:47;22.80;99.90
59309;DHT22;48433;53.016;-2.260;2022-07-30T14:18:15;22.80;99.90
59309;DHT22;48433;53.016;-2.260;2022-07-30T14:20:43;22.90;99.90
59309;DHT22;48433;53.016;-2.260;2022-07-30T14:23:15;22.90;99.90
59309;DHT22;48433;53.016;-2.260;2022-07-30T14:25:43;22.90;99.90
59309;DHT22;48433;53.016;-2.260;2022-07-30T14:28:11;22.90;99.90
59309;DHT22;48433;53.016;-2.260;2022-07-30T14:30:38;22.80;99.90
59309;DHT22;48433;53.016;-2.260;2022-07-30T14:33:06;22.60;99.90
59309;DHT22;48433;53.016;-2.260;2022-07-30T14:35:34;22.50;99.90
59309;DHT22;48433;53.016;-2.260;2022-07-30T14:38:02;22.20;99.90
59309;DHT22;48433;53.016;-2.260;2022-07-30T14:40:30;22.00;99.90
59309;DHT22;48433;53.016;-2.260;2022-07-30T14:42:57;21.80;99.90
59309;DHT22;48433;53.016;-2.260;2022-07-30T14:45:25;21.70;99.90
59309;DHT22;48433;53.016;-2.260;2022-07-30T14:47:55;21.60;99.90
59309;DHT22;48433;53.016;-2.260;2022-07-30T14:50:22;21.40;99.90
59309;DHT22;48433;53.016;-2.260;2022-07-30T14:52:50;21.40;99.90
59309;DHT22;48433;53.016;-2.260;2022-07-30T14:55:18;21.40;99.90
59309;DHT22;48433;53.016;-2.260;2022-07-30T14:57:46;21.40;99.90
59309;DHT22;48433;53.016;-2.260;2022-07-30T15:00:14;21.40;99.90
59309;DHT22;48433;53.016;-2.260;2022-07-30T15:02:42;21.40;99.90
59309;DHT22;48433;53.016;-2.260;2022-07-30T15:05:09;21.60;99.90
59309;DHT22;48433;53.016;-2.260;2022-07-30T15:07:45;21.60;99.90
59309;DHT22;48433;53.016;-2.260;2022-07-30T15:10:17;21.80;99.90
59309;DHT22;48433;53.016;-2.260;2022-07-30T15:12:46;21.80;99.90
59309;DHT22;48433;53.016;-2.260;2022-07-30T15:15:14;21.90;99.90
59309;DHT22;48433;53.016;-2.260;2022-07-30T15:17:42;22.00;99.90
59309;DHT22;48433;53.016;-2.260;2022-07-30T15:20:10;21.90;99.90
59309;DHT22;48433;53.016;-2.260;2022-07-30T15:22:38;21.90;99.90
59309;DHT22;48433;53.016;-2.260;2022-07-30T15:25:07;21.90;99.90
59309;DHT22;48433;53.016;-2.260;2022-07-30T15:27:35;21.90;99.90
59309;DHT22;48433;53.016;-2.260;2022-07-30T15:30:04;21.80;99.90
59309;DHT22;48433;53.016;-2.260;2022-07-30T15:32:32;21.80;99.90
59309;DHT22;48433;53.016;-2.260;2022-07-30T15:34:59;21.80;99.90
59309;DHT22;48433;53.016;-2.260;2022-07-30T15:37:27;21.80;99.90
59309;DHT22;48433;53.016;-2.260;2022-07-30T16:12:09;22.40;99.90
59309;DHT22;48433;53.016;-2.260;2022-07-30T16:14:37;22.30;99.90
59309;DHT22;48433;53.016;-2.260;2022-07-30T16:17:05;22.10;99.90
59309;DHT22;48433;53.016;-2.260;2022-07-30T16:19:40;21.90;99.90
59309;DHT22;48433;53.016;-2.260;2022-07-30T16:22:13;21.70;99.90
59309;DHT22;48433;53.016;-2.260;2022-07-30T16:24:48;21.60;99.90
59309;DHT22;48433;53.016;-2.260;2022-07-30T16:27:16;21.50;99.90
59309;DHT22;48433;53.016;-2.260;2022-07-30T16:29:44;21.40;99.90
59309;DHT22;48433;53.016;-2.260;2022-07-30T16:32:11;21.30;99.90
59309;DHT22;48433;53.016;-2.260;2022-07-30T16:34:39;21.20;99.90
59309;DHT22;48433;53.016;-2.260;2022-07-30T16:37:06;21.10;99.90
59309;DHT22;48433;53.016;-2.260;2022-07-30T16:39:34;21.00;99.90
59309;DHT22;48433;53.016;-2.260;2022-07-30T16:42:01;20.90;99.90
59309;DHT22;48433;53.016;-2.260;2022-07-30T16:44:31;20.90;99.90
59309;DHT22;48433;53.016;-2.260;2022-07-30T16:47:00;20.90;99.90
59309;DHT22;48433;53.016;-2.260;2022-07-30T16:49:27;21.00;99.90
59309;DHT22;48433;53.016;-2.260;2022-07-30T16:51:56;21.00;99.90
59309;DHT22;48433;53.016;-2.260;2022-07-30T16:54:24;21.00;99.90
59309;DHT22;48433;53.016;-2.260;2022-07-30T16:56:52;20.90;99.90
59309;DHT22;48433;53.016;-2.260;2022-07-30T16:59:20;20.90;99.90
59309;DHT22;48433;53.016;-2.260;2022-07-30T17:01:48;20.80;99.90
59309;DHT22;48433;53.016;-2.260;2022-07-30T17:04:15;20.90;99.90
59309;DHT22;48433;53.016;-2.260;2022-07-30T17:06:43;20.80;99.90
59309;DHT22;48433;53.016;-2.260;2022-07-30T17:09:11;20.80;99.90
59309;DHT22;48433;53.016;-2.260;2022-07-30T17:11:42;20.80;99.90
59309;DHT22;48433;53.016;-2.260;2022-07-30T17:14:18;20.80;99.90
59309;DHT22;48433;53.016;-2.260;2022-07-30T17:16:48;20.90;99.90
59309;DHT22;48433;53.016;-2.260;2022-07-30T17:19:16;21.00;99.90
59309;DHT22;48433;53.016;-2.260;2022-07-30T17:21:44;21.00;99.90
59309;DHT22;48433;53.016;-2.260;2022-07-30T17:24:11;21.00;99.90
59309;DHT22;48433;53.016;-2.260;2022-07-30T17:26:41;21.00;99.90